Data for 12/03/2005

Time Sea-Level Adjusted Pressure Absolute Pressure Temperature Relative Humidity Dew Point   
(mb) (inHg) (mb) (inHg) (C) (F) (%) (C) (F)
00:05 1008 29.77 838 24.75 -7.3 18.8 65 -12.8 8.9
00:10 1008 29.77 838 24.75 -7.3 19 64 -13 8.6
00:15 1008 29.77 838 24.75 -7.1 19.3 64 -12.9 8.8
00:20 1008 29.77 838 24.75 -7.1 19.3 63 -13 8.7
00:25 1008 29.77 838 24.75 -6.6 20.2 61 -12.9 8.9
00:30 1008 29.77 838 24.75 -6.4 20.5 62 -12.5 9.4
00:35 1008 29.77 838 24.75 -6.5 20.4 61 -12.8 9
00:40 1008 29.77 838 24.75 -6.3 20.6 61 -12.6 9.3
00:45 1008 29.77 838 24.75 -6.3 20.7 61 -12.7 9.2
00:50 1008 29.77 838 24.75 -6.4 20.5 60 -12.8 8.9
00:55 1008 29.77 838 24.75 -6.8 19.8 64 -12.4 9.6
01:00 1008 29.77 838 24.75 -7.4 18.6 68 -12.4 9.6
01:05 1008 29.77 838 24.75 -7.4 18.7 66 -12.6 9.3
01:10 1008 29.77 838 24.75 -7.4 18.6 68 -12.3 9.8
01:15 1008 29.77 838 24.75 -7.3 18.9 65 -12.7 9.1
01:20 1008 29.77 838 24.75 -6.5 20.4 60 -13 8.6
01:25 1008 29.77 838 24.75 -6.6 20.2 62 -12.7 9.1
01:30 1008 29.77 838 24.75 -6.6 20.1 63 -12.5 9.5
01:35 1008 29.77 838 24.75 -6.5 20.4 60 -13 8.7
01:40 1009 29.8 838 24.75 -6.4 20.4 63 -12.3 9.8
01:45 1008 29.77 838 24.75 -6.5 20.2 61 -12.9 8.8
01:50 1008 29.77 838 24.75 -6.8 19.7 65 -12.4 9.8
01:55 1009 29.8 838 24.75 -7.3 18.8 66 -12.6 9.3
02:00 1008 29.77 838 24.75 -7.1 19.3 64 -12.8 9
02:05 1008 29.77 838 24.75 -6.7 19.9 62 -12.9 8.8
02:10 1009 29.8 838 24.75 -6.7 20 61 -12.9 8.7
02:15 1009 29.8 838 24.75 -6.8 19.8 65 -12.3 9.9
02:20 1009 29.8 838 24.75 -6.7 19.9 65 -12.3 9.9
02:25 1009 29.8 838 24.75 -6.7 19.9 66 -12.1 10.3
02:30 1009 29.8 838 24.75 -6.6 20 66 -12 10.5
02:35 1009 29.8 838 24.75 -6.7 20 66 -12 10.4
02:40 1009 29.8 838 24.75 -6.6 20.1 65 -12.2 10.1
02:45 1009 29.8 838 24.75 -6.5 20.2 65 -12 10.4
02:50 1009 29.8 838 24.75 -6.6 20 66 -11.9 10.6
02:55 1009 29.8 838 24.75 -6.6 20 67 -11.9 10.6
03:00 1009 29.8 838 24.75 -6.6 20.1 66 -12 10.4
03:05 1009 29.8 838 24.75 -6.5 20.3 67 -11.7 10.9
03:10 1009 29.8 838 24.75 -6.7 19.9 68 -11.7 10.9
03:15 1009 29.8 838 24.75 -6.8 19.8 68 -11.7 10.9
03:20 1009 29.8 838 24.75 -6.8 19.8 69 -11.6 11.1
03:25 1009 29.8 838 24.75 -6.8 19.8 68 -11.6 11
03:30 1009 29.8 838 24.75 -6.9 19.6 70 -11.5 11.3
03:35 1009 29.8 838 24.75 -7 19.3 70 -11.5 11.2
03:40 1009 29.8 838 24.75 -7 19.4 72 -11.3 11.7
03:45 1009 29.8 838 24.75 -7.1 19.3 72 -11.4 11.5
03:50 1009 29.8 838 24.75 -7 19.5 71 -11.3 11.6
03:55 1009 29.8 838 24.75 -6.8 19.7 70 -11.4 11.5
04:00 1009 29.8 838 24.75 -6.7 19.9 70 -11.4 11.4
04:05 1009 29.8 838 24.75 -6.7 20 70 -11.3 11.7
04:10 1009 29.8 838 24.75 -6.6 20.2 70 -11.2 11.9
04:15 1009 29.8 838 24.75 -6.4 20.4 69 -11.2 11.8
04:20 1009 29.8 838 24.75 -6.3 20.7 69 -11.2 11.9
04:25 1009 29.8 838 24.75 -6.3 20.6 69 -11 12.2
04:30 1009 29.8 838 24.75 -6.5 20.3 71 -11 12.2
04:35 1009 29.8 838 24.75 -6.6 20.2 69 -11.3 11.7
04:40 1009 29.8 838 24.75 -6.5 20.3 70 -11.1 11.9
04:45 1009 29.8 838 24.75 -6.5 20.4 70 -11.1 12
04:50 1009 29.8 838 24.75 -6.5 20.4 69 -11.2 11.8
04:55 1009 29.8 838 24.75 -6.4 20.5 69 -11.3 11.7
05:00 1009 29.8 838 24.75 -6.4 20.4 70 -11.1 12
05:05 1009 29.8 838 24.75 -6.4 20.4 68 -11.4 11.4
05:10 1009 29.8 838 24.75 -6.1 21 67 -11.3 11.7
05:15 1009 29.8 838 24.75 -6 21.1 66 -11.4 11.4
05:20 1009 29.8 838 24.75 -5.9 21.4 67 -11.1 12
05:25 1009 29.8 838 24.75 -6 21.2 70 -10.7 12.7
05:30 1009 29.8 838 24.75 -6.3 20.7 69 -11 12.2
05:35 1009 29.8 839 24.78 -6.5 20.2 72 -10.8 12.6
05:40 1009 29.8 839 24.78 -6.7 19.9 72 -10.9 12.4
05:45 1009 29.8 839 24.78 -6.7 20 73 -10.8 12.6
05:50 1009 29.8 839 24.78 -6.7 20 72 -11 12.2
05:55 1010 29.83 839 24.78 -6.5 20.4 71 -11 12.3
06:00 1010 29.83 839 24.78 -6.4 20.5 72 -10.7 12.7
06:05 1010 29.83 839 24.78 -6.6 20.1 74 -10.5 13
06:10 1010 29.83 839 24.78 -6.8 19.8 75 -10.5 13
06:15 1010 29.83 839 24.78 -6.7 19.9 73 -10.8 12.5
06:20 1010 29.83 839 24.78 -6.4 20.4 70 -11 12.2
06:25 1010 29.83 839 24.78 -6.2 20.8 70 -10.8 12.5
06:30 1010 29.83 839 24.78 -6 21.3 67 -11.1 12
06:35 1010 29.83 839 24.78 -5.4 22.3 61 -11.7 10.9
06:40 1010 29.83 839 24.78 -5.1 22.9 64 -10.9 12.3
06:45 1010 29.83 839 24.78 -5.4 22.3 63 -11.4 11.6
06:50 1010 29.83 839 24.78 -5.5 22.1 63 -11.5 11.2
06:55 1010 29.83 839 24.78 -5.6 21.9 62 -11.7 11
07:00 1010 29.83 839 24.78 -5.4 22.3 63 -11.3 11.7
07:05 1010 29.83 839 24.78 -5.5 22.1 63 -11.5 11.3
07:10 1010 29.83 839 24.78 -5.7 21.7 66 -11.2 11.9
07:15 1010 29.83 839 24.78 -6 21.3 68 -10.9 12.3
07:20 1010 29.83 839 24.78 -5.9 21.4 65 -11.4 11.5
07:25 1010 29.83 839 24.78 -5.7 21.8 64 -11.5 11.3
07:30 1010 29.83 839 24.78 -5.6 21.9 63 -11.5 11.3
07:35 1010 29.83 840 24.81 -5.5 22.1 67 -10.8 12.6
07:40 1010 29.83 840 24.81 -6 21.2 75 -9.8 14.3
07:45 1010 29.83 840 24.81 -6.4 20.4 76 -10 14
07:50 1011 29.85 840 24.81 -6.6 20.2 76 -10.1 13.9
07:55 1011 29.85 840 24.81 -6.5 20.3 75 -10.2 13.7
08:00 1011 29.85 840 24.81 -6.5 20.3 74 -10.4 13.2
08:05 1011 29.85 840 24.81 -6.4 20.5 72 -10.7 12.8
08:10 1011 29.85 840 24.81 -6.1 21.1 71 -10.5 13
08:15 1011 29.85 840 24.81 -5.8 21.7 69 -10.6 12.9
08:20 1011 29.85 840 24.81 -5.6 22 71 -10.1 13.9
08:25 1011 29.85 840 24.81 -5.6 21.9 68 -10.7 12.7
08:30 1011 29.85 840 24.81 -5.5 22.1 68 -10.5 13.2
08:35 1011 29.85 840 24.81 -5.4 22.2 67 -10.6 12.8
08:40 1011 29.85 840 24.81 -5.5 22.1 65 -11.1 12
08:45 1011 29.85 840 24.81 -5.7 21.8 65 -11.2 11.8
08:50 1011 29.85 840 24.81 -5.3 22.4 62 -11.6 11.1
08:55 1011 29.85 840 24.81 -4.8 23.4 61 -11.1 11.9
09:00 1011 29.85 841 24.83 -4.6 23.8 60 -11.3 11.7
09:05 1011 29.85 841 24.83 -4.3 24.2 58 -11.4 11.5
09:10 1011 29.85 841 24.83 -4.1 24.6 58 -11.2 11.8
09:15 1011 29.85 841 24.83 -3.9 25 58 -11 12.1
09:20 1012 29.88 841 24.83 -3.6 25.4 58 -10.8 12.5
09:25 1012 29.88 841 24.83 -3.9 25.1 58 -11 12.2
09:30 1012 29.88 841 24.83 -3.8 25.1 55 -11.6 11.1
09:35 1012 29.88 841 24.83 -3.9 25.1 55 -11.7 11
09:40 1012 29.88 841 24.83 -3.9 25 54 -11.8 10.8
09:45 1012 29.88 841 24.83 -3.7 25.3 54 -11.6 11.1
09:50 1012 29.88 841 24.83 -3.7 25.3 54 -11.7 11
09:55 1012 29.88 841 24.83 -3.8 25.2 55 -11.6 11
10:00 1012 29.88 841 24.83 -3.7 25.3 57 -11.2 11.9
10:05 1012 29.88 841 24.83 -3.8 25.2 58 -11 12.3
10:10 1012 29.88 841 24.83 -3.8 25.1 56 -11.3 11.7
10:15 1012 29.88 841 24.83 -3.8 25.2 57 -11.2 11.8
10:20 1012 29.88 841 24.83 -3.7 25.4 56 -11.2 11.9
10:25 1012 29.88 841 24.83 -3.8 25.2 57 -11 12.1
10:30 1012 29.88 841 24.83 -3.6 25.5 57 -11 12.1
10:35 1012 29.88 842 24.86 -3.6 25.5 56 -11.1 12
10:40 1012 29.88 842 24.86 -3.6 25.5 56 -11.1 11.9
10:45 1012 29.88 842 24.86 -3.6 25.6 57 -11 12.3
10:50 1013 29.91 842 24.86 -3.6 25.5 57 -11 12.3
10:55 1013 29.91 842 24.86 -4.3 24.2 60 -11 12.3
11:00 1013 29.91 842 24.86 -4.3 24.2 59 -11.1 12
11:05 1013 29.91 842 24.86 -3.7 25.3 58 -10.9 12.3
11:10 1013 29.91 842 24.86 -3.7 25.3 57 -11.1 11.9
11:15 1013 29.91 842 24.86 -3.5 25.6 57 -11 12.3
11:20 1013 29.91 842 24.86 -3.5 25.8 56 -11 12.2
11:25 1013 29.91 842 24.86 -3.6 25.6 58 -10.6 13
11:30 1013 29.91 842 24.86 -3.5 25.7 56 -11 12.2
11:35 1013 29.91 842 24.86 -3.7 25.4 58 -10.9 12.4
11:40 1013 29.91 842 24.86 -3.7 25.4 57 -10.9 12.4
11:45 1013 29.91 842 24.86 -3.8 25.2 58 -11 12.3
11:50 1013 29.91 842 24.86 -3.7 25.3 57 -10.9 12.3
11:55 1013 29.91 842 24.86 -3.3 26.1 55 -11 12.2
12:00 1013 29.91 842 24.86 -3.6 25.5 56 -11.2 11.8
12:05 1013 29.91 842 24.86 -3.9 24.9 58 -10.9 12.3
12:10 1013 29.91 842 24.86 -3.2 26.2 54 -11.2 11.9
12:15 1013 29.91 842 24.86 -3.6 25.6 58 -10.6 12.9
12:20 1013 29.91 842 24.86 -3.4 25.9 57 -10.7 12.8
12:25 1013 29.91 842 24.86 -3.1 26.4 57 -10.5 13.2
12:30 1013 29.91 842 24.86 -2.8 26.9 55 -10.8 12.6
12:35 1013 29.91 842 24.86 -2.6 27.3 55 -10.4 13.2
12:40 1013 29.91 842 24.86 -2.3 27.8 54 -10.4 13.2
12:45 1013 29.91 842 24.86 -2.3 27.8 54 -10.4 13.4
12:50 1013 29.91 842 24.86 -2.6 27.4 57 -9.9 14.1
12:55 1013 29.91 842 24.86 -3.1 26.3 58 -10.3 13.5
13:00 1013 29.91 842 24.86 -3.4 25.9 59 -10.4 13.3
13:05 1013 29.91 842 24.86 -3.1 26.5 57 -10.4 13.3
13:10 1013 29.91 842 24.86 -3 26.5 57 -10.3 13.4
13:15 1013 29.91 842 24.86 -2.9 26.8 57 -10.1 13.7
13:20 1013 29.91 842 24.86 -2.7 27.2 57 -10.1 13.9
13:25 1013 29.91 842 24.86 -2.6 27.3 56 -10.3 13.5
13:30 1013 29.91 842 24.86 -2.6 27.3 55 -10.4 13.2
13:35 1013 29.91 842 24.86 -2.5 27.6 54 -10.6 12.9
13:40 1013 29.91 842 24.86 -2.6 27.3 57 -10 14
13:45 1013 29.91 842 24.86 -2.4 27.6 55 -10.4 13.3
13:50 1013 29.91 842 24.86 -2.6 27.4 55 -10.4 13.2
13:55 1013 29.91 842 24.86 -2.6 27.3 57 -10 14
14:00 1013 29.91 842 24.86 -3.1 26.4 57 -10.4 13.3
14:05 1013 29.91 842 24.86 -3.8 25.1 60 -10.6 13
14:10 1013 29.91 842 24.86 -4.1 24.5 61 -10.6 12.9
14:15 1013 29.91 842 24.86 -3.7 25.3 58 -10.9 12.3
14:20 1013 29.91 842 24.86 -3.5 25.8 58 -10.7 12.8
14:25 1013 29.91 842 24.86 -3.8 25.2 60 -10.6 13
14:30 1013 29.91 842 24.86 -3.6 25.6 57 -10.8 12.5
14:35 1013 29.91 842 24.86 -3.9 25.1 58 -10.9 12.3
14:40 1013 29.91 842 24.86 -3.9 25 59 -10.9 12.4
14:45 1013 29.91 842 24.86 -3.5 25.8 57 -10.8 12.5
14:50 1013 29.91 842 24.86 -3.4 25.8 59 -10.4 13.2
14:55 1013 29.91 842 24.86 -3.4 26 61 -9.9 14.2
15:00 1013 29.91 842 24.86 -3.2 26.3 60 -9.9 14.1
15:05 1013 29.91 842 24.86 -2.9 26.7 60 -9.7 14.5
15:10 1013 29.91 842 24.86 -3 26.5 59 -10.1 13.9
15:15 1013 29.91 842 24.86 -3.3 26.1 60 -10 14
15:20 1013 29.91 842 24.86 -3.2 26.2 59 -10.2 13.6
15:25 1013 29.91 843 24.89 -3.9 25 60 -10.6 12.9
15:30 1013 29.91 843 24.89 -4 24.9 61 -10.5 13.2
15:35 1013 29.91 843 24.89 -3.7 25.3 60 -10.3 13.4
15:40 1013 29.91 843 24.89 -4 24.8 59 -10.8 12.5
15:45 1013 29.91 843 24.89 -4.1 24.7 61 -10.6 12.9
15:50 1013 29.91 842 24.86 -3.9 25 60 -10.5 13.1
15:55 1013 29.91 843 24.89 -3.8 25.1 60 -10.5 13.1
16:00 1013 29.91 843 24.89 -3.8 25.1 62 -10 14
16:05 1014 29.94 843 24.89 -3.7 25.3 58 -10.8 12.6
16:10 1014 29.94 843 24.89 -3.6 25.5 63 -9.7 14.5
16:15 1014 29.94 843 24.89 -3.6 25.6 64 -9.4 15.1
16:20 1014 29.94 843 24.89 -4 24.8 71 -8.6 16.6
16:25 1014 29.94 843 24.89 -3.9 25 71 -8.4 16.8
16:30 1014 29.94 843 24.89 -3.9 24.9 70 -8.7 16.4
16:35 1014 29.94 843 24.89 -4 24.7 73 -8.2 17.3
16:40 1014 29.94 843 24.89 -4.2 24.4 75 -8 17.5
16:45 1014 29.94 843 24.89 -4.5 23.8 78 -7.9 17.8
16:50 1014 29.94 843 24.89 -4.9 23.2 79 -8 17.5
16:55 1014 29.94 843 24.89 -5.2 22.7 81 -7.9 17.7
17:00 1014 29.94 843 24.89 -5.5 22.1 84 -7.8 18
17:05 1014 29.94 843 24.89 -5.7 21.8 86 -7.7 18.2
17:10 1014 29.94 843 24.89 -5.7 21.8 86 -7.6 18.3
17:15 1014 29.94 843 24.89 -5.7 21.8 88 -7.4 18.7
17:20 1014 29.94 843 24.89 -5.6 22 88 -7.2 19
17:25 1014 29.94 843 24.89 -5.5 22.1 89 -7.1 19.2
17:30 1014 29.94 843 24.89 -5.3 22.5 87 -7.1 19.2
17:35 1014 29.94 843 24.89 -5.2 22.7 87 -7 19.3
17:40 1014 29.94 843 24.89 -5.1 22.8 86 -7.2 19.1
17:45 1014 29.94 843 24.89 -5.2 22.6 86 -7.3 18.9
17:50 1014 29.94 843 24.89 -5.3 22.5 86 -7.3 18.9
17:55 1014 29.94 843 24.89 -5.6 21.9 88 -7.4 18.7
18:00 1014 29.94 843 24.89 -6.1 21 89 -7.7 18.1
18:05 1014 29.94 844 24.92 -5.9 21.4 87 -7.7 18.1
18:10 1014 29.94 843 24.89 -5.8 21.6 86 -7.7 18.1
18:15 1014 29.94 843 24.89 -5.6 21.9 85 -7.7 18.1
18:20 1014 29.94 843 24.89 -5.7 21.8 85 -7.8 18
18:25 1014 29.94 843 24.89 -5.7 21.7 85 -7.9 17.8
18:30 1014 29.94 843 24.89 -5.6 21.8 84 -7.9 17.8
18:35 1014 29.94 843 24.89 -5.7 21.8 86 -7.7 18.1
18:40 1014 29.94 844 24.92 -5.8 21.6 84 -8 17.6
18:45 1014 29.94 844 24.92 -6.1 20.9 87 -8 17.6
18:50 1014 29.94 844 24.92 -6.1 21 87 -7.9 17.7
18:55 1014 29.94 844 24.92 -6 21.2 86 -8 17.6
19:00 1014 29.94 844 24.92 -5.7 21.7 85 -7.9 17.7
19:05 1014 29.94 844 24.92 -5.6 21.8 83 -8.1 17.5
19:10 1014 29.94 844 24.92 -5.6 21.9 83 -8.1 17.4
19:15 1014 29.94 844 24.92 -5.7 21.8 84 -7.9 17.8
19:20 1014 29.94 844 24.92 -5.9 21.4 85 -8 17.6
19:25 1014 29.94 844 24.92 -6.1 20.9 87 -7.9 17.7
19:30 1014 29.94 844 24.92 -5.9 21.3 87 -7.8 18
19:35 1014 29.94 844 24.92 -5.8 21.6 86 -7.8 18
19:40 1015 29.97 844 24.92 -5.6 21.9 85 -7.7 18.1
19:45 1015 29.97 844 24.92 -5.4 22.2 84 -7.7 18.2
19:50 1015 29.97 844 24.92 -5.4 22.3 84 -7.6 18.3
19:55 1015 29.97 844 24.92 -5.4 22.3 84 -7.7 18.1
20:00 1015 29.97 844 24.92 -5.8 21.6 85 -7.9 17.7
20:05 1015 29.97 844 24.92 -5.9 21.3 84 -8.2 17.2
20:10 1015 29.97 844 24.92 -6 21.3 83 -8.4 16.8
20:15 1015 29.97 844 24.92 -5.9 21.4 82 -8.5 16.7
20:20 1015 29.97 844 24.92 -5.7 21.8 82 -8.3 17
20:25 1015 29.97 844 24.92 -5.5 22.2 81 -8.2 17.2
20:30 1015 29.97 844 24.92 -5.4 22.3 82 -7.9 17.7
20:35 1015 29.97 844 24.92 -5.4 22.2 84 -7.8 18
20:40 1015 29.97 844 24.92 -5.4 22.3 82 -7.9 17.7
20:45 1015 29.97 844 24.92 -5.4 22.3 83 -7.9 17.8
20:50 1015 29.97 844 24.92 -5.5 22.1 82 -8 17.5
20:55 1015 29.97 845 24.95 -5.5 22.2 83 -7.9 17.7
21:00 1015 29.97 845 24.95 -5.8 21.5 85 -7.9 17.7
21:05 1015 29.97 845 24.95 -6.4 20.4 86 -8.3 17
21:10 1016 30 845 24.95 -6.8 19.7 88 -8.4 16.9
21:15 1016 30 845 24.95 -7 19.3 89 -8.6 16.5
21:20 1016 30 845 24.95 -7.1 19.1 89 -8.7 16.4
21:25 1016 30 845 24.95 -7.3 19 89 -8.7 16.3
21:30 1016 30 845 24.95 -7.2 19 90 -8.7 16.4
21:35 1016 30 845 24.95 -7.1 19.1 89 -8.6 16.5
21:40 1016 30 845 24.95 -7.1 19.2 90 -8.4 16.8
21:45 1016 30 845 24.95 -7 19.4 90 -8.3 17
21:50 1016 30 845 24.95 -7 19.4 90 -8.4 16.9
21:55 1016 30 845 24.95 -6.9 19.5 89 -8.4 16.8
22:00 1016 30 845 24.95 -6.8 19.7 88 -8.5 16.7
22:05 1016 30 845 24.95 -7.1 19.3 88 -8.7 16.3
22:10 1016 30 845 24.95 -7.7 18.2 92 -8.8 16.2
22:15 1016 30 845 24.95 -8.2 17.3 94 -9 15.8
22:20 1016 30 845 24.95 -7.9 17.8 90 -9.2 15.4
22:25 1016 30 845 24.95 -7.5 18.4 87 -9.3 15.2
22:30 1016 30 846 24.98 -7.2 19.1 85 -9.3 15.3
22:35 1016 30 846 24.98 -6.9 19.5 82 -9.5 14.9
22:40 1016 30 846 24.98 -6.8 19.7 81 -9.6 14.7
22:45 1016 30 846 24.98 -6.9 19.6 80 -9.8 14.4
22:50 1017 30.03 846 24.98 -6.8 19.8 78 -9.9 14.1
22:55 1017 30.03 846 24.98 -6.6 20 77 -10 14
23:00 1017 30.03 846 24.98 -6.5 20.3 77 -10 14.1
23:05 1017 30.03 846 24.98 -6.4 20.4 75 -10.2 13.6
23:10 1017 30.03 846 24.98 -6.4 20.6 74 -10.2 13.7
23:15 1017 30.03 846 24.98 -6.2 20.8 73 -10.2 13.6
23:20 1017 30.03 846 24.98 -6.1 20.9 73 -10.3 13.4
23:25 1017 30.03 846 24.98 -6.2 20.9 72 -10.4 13.2
23:30 1017 30.03 846 24.98 -6.3 20.7 72 -10.5 13
23:35 1017 30.03 846 24.98 -6.5 20.4 73 -10.5 13
23:40 1017 30.03 846 24.98 -7 19.4 73 -11.1 12
23:45 1017 30.03 846 24.98 -7.2 19.1 72 -11.4 11.4
23:50 1017 30.03 846 24.98 -6.9 19.5 72 -11.2 11.8
23:55 1017 30.03 846 24.98 -6.5 20.2 70 -11.1 12
24:00 1017 30.03 846 24.98 -6.4 20.4 70 -11 12.1